Latest Coastal Weather Observations for Noarlunga

IDS60701

Issued at 9:05 pm CST Thursday 24 April 2014 (issued every 10 minutes, with the page automatically refreshed every 10 minutes)

About coastal observations | Map of coastal stations | Coastal observations for SA | Marine services | Other Formats
Station Details ID: 023885 Name: NOARLUNGA Lat: -35.16 Lon: 138.51 Height: 55.0 m
Data from the previous 72 hours. | See also: Recent months at Noarlunga
Date/Time
CST
Temp

°C
Wind Pressure Rain
since 9am
mm
Weather Cloud Vis
km
Sea
Height
m
Swell
Dir
 
Speed
knots
Gust
knots
hPa Trend Height
m
Period
s
Dir
24/09:00pm 12.5 ESE 10 14 - - 0.0 - - - - - - -
24/08:30pm 12.7 ESE 10 16 - - 0.0 - - - - - - -
24/08:00pm 12.9 ESE 10 14 - - 0.0 - - - - - - -
24/07:30pm 13.2 ESE 10 15 - - 0.0 - - - - - - -
24/07:00pm 13.5 ESE 9 12 - - 0.0 - - - - - - -
24/06:30pm 14.0 ESE 10 14 - - 0.0 - - - - - - -
24/06:00pm 14.7 SE 10 14 - - 0.0 - - - - - - -
24/05:30pm 15.7 SE 11 15 - - 0.0 - - - - - - -
24/05:00pm 16.8 SE 11 16 - - 0.0 - - - - - - -
24/04:30pm 17.8 SSE 11 15 - - 0.0 - - - - - - -
24/04:00pm 18.8 SSE 9 12 - - 0.0 - - - - - - -
24/03:30pm 19.3 S 6 8 - - 0.0 - - - - - - -
24/03:00pm 19.4 SSE 9 12 - - 0.0 - - - - - - -
24/02:30pm 19.9 S 4 9 - - 0.0 - - - - - - -
24/02:00pm 20.4 S 5 9 - - 0.0 - - - - - - -
24/01:30pm 19.7 S 6 11 - - 0.0 - - - - - - -
24/01:00pm 19.1 SSE 8 14 - - 0.0 - - - - - - -
24/12:30pm 19.4 S 7 11 - - 0.0 - - - - - - -
24/12:00pm 18.8 SSE 8 11 - - 0.0 - - - - - - -
24/11:30am 18.4 S 9 14 - - 0.0 - - - - - - -
24/11:00am 18.8 SSE 9 13 - - 0.0 - - - - - - -
24/10:30am 18.1 S 10 16 - - 0.0 - - - - - - -
24/10:00am 18.4 S 10 14 - - 0.0 - - - - - - -
24/09:30am 17.4 SSE 9 14 - - 0.0 - - - - - - -
24/09:00am 17.0 SSE 9 13 - - 1.2 - - - - - - -
24/08:30am 16.5 SSE 8 11 - - 1.2 - - - - - - -
24/08:00am 15.4 S 5 8 - - 1.2 - - - - - - -
24/07:30am 15.0 SSE 5 7 - - 1.2 - - - - - - -
24/07:00am 14.8 S 3 5 - - 1.2 - - - - - - -
24/06:30am 15.4 SW 6 9 - - 1.2 - - - - - - -
24/06:00am 15.8 SW 11 15 - - 1.2 Rain - - - - - -
24/05:30am 16.7 WNW 7 12 - - 0.8 - - - - - - -
24/05:00am 16.8 W 8 13 - - 0.8 - - - - - - -
24/04:30am 16.6 WNW 7 13 - - 0.8 - - - - - - -
24/04:00am 16.4 W 7 11 - - 0.8 - - - - - - -
24/03:30am 16.2 WNW 6 9 - - 0.8 - - - - - - -
24/03:00am 16.1 WNW 8 14 - - 0.8 - - - - - - -
24/02:30am 16.3 W 8 14 - - 0.8 - - - - - - -
24/02:00am 16.0 WNW 7 11 - - 0.8 - - - - - - -
24/01:30am 15.9 WNW 8 13 - - 0.8 - - - - - - -
24/01:00am 15.9 W 10 18 - - 0.8 - - - - - - -
24/12:30am 16.3 W 5 8 - - 0.0 - - - - - - -
24/12:00am 16.6 W 7 11 - - 0.0 - - - - - - -
 
Date/Time
CST
Temp

°C
Wind Pressure Rain
since 9am
mm
Weather Cloud Vis
km
Sea
Height
m
Swell
Dir
 
Speed
knots
Gust
knots
hPa Trend Height
m
Period
s
Dir
23/11:30pm 17.6 WNW 9 16 - - 0.0 - - - - - - -
23/11:00pm 17.6 WNW 8 11 - - 0.0 - - - - - - -
23/10:30pm 17.2 NW 6 9 - - 0.0 - - - - - - -
23/10:00pm 17.1 NW 6 9 - - 0.0 - - - - - - -
23/09:30pm 17.3 NNW 6 9 - - 0.0 - - - - - - -
23/09:00pm 17.4 NNW 7 9 - - 0.0 - - - - - - -
23/08:30pm 17.4 NNW 5 9 - - 0.0 - - - - - - -
23/08:00pm 17.1 NNW 5 7 - - 0.0 - - - - - - -
23/07:30pm 16.6 N 5 7 - - 0.0 - - - - - - -
23/07:00pm 16.8 N 5 10 - - 0.0 - - - - - - -
23/06:30pm 16.6 N 4 5 - - 0.0 - - - - - - -
23/06:00pm 17.1 N 3 4 - - 0.0 - - - - - - -
23/05:30pm 18.2 N 3 5 - - 0.0 - - - - - - -
23/05:00pm 19.2 N 4 5 - - 0.0 - - - - - - -
23/04:30pm 18.8 N 3 6 - - 0.0 - - - - - - -
23/04:00pm 18.8 NNW 5 6 - - 0.0 - - - - - - -
23/03:30pm 19.3 NNW 3 6 - - 0.0 - - - - - - -
23/03:00pm 19.2 NNW 4 8 - - 0.0 - - - - - - -
23/02:30pm 19.1 NW 3 6 - - 0.0 - - - - - - -
23/02:00pm 18.3 WNW 4 6 - - 0.0 - - - - - - -
23/01:30pm 18.1 WNW 6 8 - - 0.0 - - - - - - -
23/01:00pm 18.1 WNW 5 9 - - 0.0 - - - - - - -
23/12:30pm 18.0 WNW 6 9 - - 0.0 - - - - - - -
23/12:00pm 17.8 WNW 5 9 - - 0.0 - - - - - - -
23/11:30am 17.4 NNW 5 8 - - 0.0 - - - - - - -
23/11:00am 16.9 NW 4 8 - - 0.0 - - - - - - -
23/10:30am 16.9 NNW 5 7 - - 0.0 - - - - - - -
23/10:00am 16.6 NNW 5 7 - - 0.0 - - - - - - -
23/09:30am 15.9 N 4 5 - - 0.0 - - - - - - -
23/09:00am 14.7 N 2 4 - - 0.0 - - - - - - -
23/08:30am 12.9 NE 2 4 - - 0.0 - - - - - - -
23/08:00am 11.8 NE 4 5 - - 0.0 - - - - - - -
23/07:30am 11.2 NE 4 5 - - 0.0 - - - - - - -
23/07:00am 9.5 ENE 3 4 - - 0.0 - - - - - - -
23/06:30am 9.4 CALM 0 3 - - 0.0 - - - - - - -
23/06:00am 9.9 NE 5 6 - - 0.0 - - - - - - -
23/05:30am 10.1 NE 4 6 - - 0.0 - - - - - - -
23/05:00am 10.1 NE 7 8 - - 0.0 - - - - - - -
23/04:30am 9.8 NE 4 6 - - 0.0 - - - - - - -
23/04:00am 9.0 ENE 2 4 - - 0.0 - - - - - - -
23/03:30am 9.1 E 1 2 - - 0.0 - - - - - - -
23/03:00am 9.6 E 3 4 - - 0.0 - - - - - - -
23/02:30am 9.8 E 3 5 - - 0.0 - - - - - - -
23/02:00am 10.3 E 4 7 - - 0.0 - - - - - - -
23/01:30am 9.9 SE 2 3 - - 0.0 - - - - - - -
23/01:00am 10.7 E 1 3 - - 0.0 - - - - - - -
23/12:30am 10.9 E 3 4 - - 0.0 - - - - - - -
23/12:00am 11.1 SE 4 5 - - 0.0 - - - - - - -
 
Date/Time
CST
Temp

°C
Wind Pressure Rain
since 9am
mm
Weather Cloud Vis
km
Sea
Height
m
Swell
Dir
 
Speed
knots
Gust
knots
hPa Trend Height
m
Period
s
Dir
22/11:30pm 11.0 SE 2 3 - - 0.0 - - - - - - -
22/11:00pm 11.6 S 1 2 - - 0.0 - - - - - - -
22/10:30pm 12.0 E 1 4 - - 0.0 - - - - - - -
22/10:00pm 12.0 ESE 2 4 - - 0.0 - - - - - - -
22/09:30pm 12.5 ESE 3 5 - - 0.0 - - - - - - -
22/09:00pm 13.2 E 4 5 - - 0.0 - - - - - - -
22/08:30pm 13.4 ESE 1 2 - - 0.0 - - - - - - -
22/08:00pm 13.8 S 1 2 - - 0.0 - - - - - - -
22/07:30pm 14.3 S 1 2 - - 0.0 - - - - - - -
22/07:00pm 14.4 ESE 2 4 - - 0.0 - - - - - - -
22/06:30pm 14.8 SE 5 9 - - 0.0 - - - - - - -
22/06:00pm 15.2 SSE 6 8 - - 0.0 - - - - - - -
22/05:30pm 16.3 S 9 11 - - 0.0 - - - - - - -
22/05:00pm 17.5 S 10 14 - - 0.0 - - - - - - -
22/04:30pm 17.8 SW 9 13 - - 0.0 - - - - - - -
22/04:00pm 18.9 SW 10 16 - - 0.0 - - - - - - -
22/03:30pm 18.9 SW 11 18 - - 0.0 - - - - - - -
22/03:00pm 18.9 WSW 12 18 - - 0.0 - - - - - - -
22/02:30pm 18.8 SW 11 18 - - 0.0 - - - - - - -
22/02:00pm 18.9 WSW 11 15 - - 0.0 - - - - - - -
22/01:30pm 19.4 WSW 11 16 - - 0.0 - - - - - - -
22/01:00pm 19.3 WSW 10 15 - - 0.0 - - - - - - -
22/12:30pm 19.1 WSW 10 16 - - 0.0 - - - - - - -
22/12:00pm 19.1 WSW 9 13 - - 0.0 - - - - - - -
22/11:30am 18.6 WSW 7 11 - - 0.0 - - - - - - -
22/11:00am 18.4 WSW 7 12 - - 0.0 - - - - - - -
22/10:30am 19.3 SSE 6 10 - - 0.0 - - - - - - -
22/10:00am 18.4 SSW 5 10 - - 0.0 - - - - - - -
22/09:30am 17.4 S 6 9 - - 0.0 - - - - - - -
22/09:00am 17.0 SSW 3 7 - - 1.8 - - - - - - -
22/08:30am 16.3 S 4 6 - - 1.8 - - - - - - -
22/08:00am 15.9 S 3 5 - - 1.8 - - - - - - -
22/07:30am 15.0 SSE 5 6 - - 1.8 - - - - - - -
22/07:00am 15.3 S 2 3 - - 1.8 - - - - - - -
22/06:30am 15.6 S 3 4 - - 1.8 - - - - - - -
22/06:00am 15.9 SSE 5 6 - - 1.8 - - - - - - -
22/05:30am 16.2 S 2 3 - - 1.8 - - - - - - -
22/05:00am 16.1 SSW 2 5 - - 1.8 - - - - - - -
22/04:30am 16.2 E 5 7 - - 1.8 - - - - - - -
22/04:00am 16.6 SW 3 4 - - 1.8 - - - - - - -
22/03:30am 16.5 SE 4 6 - - 1.8 - - - - - - -
22/03:00am 16.9 E 6 10 - - 1.8 - - - - - - -
22/02:30am 16.9 SE 2 4 - - 1.8 - - - - - - -
22/02:00am 17.4 E 3 4 - - 1.8 - - - - - - -
22/01:30am 17.8 WSW 2 4 - - 1.8 - - - - - - -
22/01:00am 18.2 SW 6 12 - - 1.8 - - - - - - -
22/12:30am 18.2 SSW 3 6 - - 1.8 - - - - - - -
22/12:00am 18.7 NNE 5 10 - - 0.8 Rain - - - - - -
 
Date/Time
CST
Temp

°C
Wind Pressure Rain
since 9am
mm
Weather Cloud Vis
km
Sea
Height
m
Swell
Dir
 
Speed
knots
Gust
knots
hPa Trend Height
m
Period
s
Dir
21/11:30pm 19.3 SSW 1 2 - - 0.4 - - - - - - -
21/11:00pm 20.1 ENE 5 8 - - 0.0 - - - - - - -
21/10:30pm 19.9 SE 3 4 - - 0.0 - - - - - - -
21/10:00pm 20.5 WSW 7 14 - - 0.0 - - - - - - -
21/09:30pm 21.5 N 4 7 - - 0.0 - - - - - - -

Other Formats:

Comma delimited format used in spreadsheet applications
http://www.bom.gov.au/fwo/IDS60701/IDS60701.94808.axf

JavaScript Object Notation format (JSON) in row-major order
http://www.bom.gov.au/fwo/IDS60701/IDS60701.94808.json